sensor_id;sensor_type;location;lat;lon;timestamp;P1;durP1;ratioP1;P2;durP2;ratioP2
5819;SDS011;2936;47.348;9.640;2023-08-12T00:00:34;4.57;;;4.23;;
5819;SDS011;2936;47.348;9.640;2023-08-12T00:03:01;4.97;;;4.47;;
5819;SDS011;2936;47.348;9.640;2023-08-12T00:05:29;5.57;;;4.20;;
5819;SDS011;2936;47.348;9.640;2023-08-12T00:07:56;5.20;;;4.70;;
5819;SDS011;2936;47.348;9.640;2023-08-12T00:10:23;4.23;;;4.03;;
5819;SDS011;2936;47.348;9.640;2023-08-12T00:12:51;5.23;;;4.73;;
5819;SDS011;2936;47.348;9.640;2023-08-12T00:15:18;5.70;;;4.10;;
5819;SDS011;2936;47.348;9.640;2023-08-12T00:17:47;6.27;;;4.70;;
5819;SDS011;2936;47.348;9.640;2023-08-12T00:20:14;4.97;;;4.57;;
5819;SDS011;2936;47.348;9.640;2023-08-12T00:22:41;7.03;;;5.00;;
5819;SDS011;2936;47.348;9.640;2023-08-12T00:25:09;4.17;;;3.73;;
5819;SDS011;2936;47.348;9.640;2023-08-12T00:27:37;5.10;;;4.70;;
5819;SDS011;2936;47.348;9.640;2023-08-12T00:30:08;11.43;;;4.37;;
5819;SDS011;2936;47.348;9.640;2023-08-12T00:32:54;13.47;;;4.20;;
5819;SDS011;2936;47.348;9.640;2023-08-12T00:35:25;6.00;;;4.63;;
5819;SDS011;2936;47.348;9.640;2023-08-12T00:37:54;5.93;;;4.43;;
5819;SDS011;2936;47.348;9.640;2023-08-12T00:40:31;4.50;;;4.20;;
5819;SDS011;2936;47.348;9.640;2023-08-12T00:43:47;5.67;;;4.77;;
5819;SDS011;2936;47.348;9.640;2023-08-12T00:46:09;4.03;;;3.73;;
5819;SDS011;2936;47.348;9.640;2023-08-12T00:48:38;4.23;;;3.93;;
5819;SDS011;2936;47.348;9.640;2023-08-12T00:51:08;11.27;;;4.90;;
5819;SDS011;2936;47.348;9.640;2023-08-12T00:53:49;5.20;;;4.80;;
5819;SDS011;2936;47.348;9.640;2023-08-12T00:56:18;6.63;;;4.50;;
5819;SDS011;2936;47.348;9.640;2023-08-12T00:58:48;4.63;;;4.27;;
5819;SDS011;2936;47.348;9.640;2023-08-12T01:01:35;4.53;;;4.20;;
5819;SDS011;2936;47.348;9.640;2023-08-12T01:07:19;4.90;;;4.50;;
5819;SDS011;2936;47.348;9.640;2023-08-12T01:09:47;7.23;;;4.50;;
5819;SDS011;2936;47.348;9.640;2023-08-12T01:12:16;5.50;;;4.90;;
5819;SDS011;2936;47.348;9.640;2023-08-12T01:14:46;5.30;;;4.80;;
5819;SDS011;2936;47.348;9.640;2023-08-12T01:17:14;5.67;;;5.07;;
5819;SDS011;2936;47.348;9.640;2023-08-12T01:19:43;4.90;;;4.57;;
5819;SDS011;2936;47.348;9.640;2023-08-12T01:22:10;4.70;;;4.40;;
5819;SDS011;2936;47.348;9.640;2023-08-12T01:24:40;4.80;;;4.10;;
5819;SDS011;2936;47.348;9.640;2023-08-12T01:27:08;6.23;;;4.47;;
5819;SDS011;2936;47.348;9.640;2023-08-12T01:29:37;4.50;;;4.20;;
5819;SDS011;2936;47.348;9.640;2023-08-12T01:32:07;4.90;;;4.37;;
5819;SDS011;2936;47.348;9.640;2023-08-12T01:34:38;4.30;;;4.03;;
5819;SDS011;2936;47.348;9.640;2023-08-12T01:37:06;5.03;;;4.63;;
5819;SDS011;2936;47.348;9.640;2023-08-12T01:39:35;3.97;;;3.77;;
5819;SDS011;2936;47.348;9.640;2023-08-12T01:42:06;4.87;;;4.30;;
5819;SDS011;2936;47.348;9.640;2023-08-12T01:44:33;5.00;;;4.50;;
5819;SDS011;2936;47.348;9.640;2023-08-12T01:47:00;3.63;;;3.33;;
5819;SDS011;2936;47.348;9.640;2023-08-12T01:49:28;4.73;;;4.43;;
5819;SDS011;2936;47.348;9.640;2023-08-12T01:51:55;4.30;;;4.00;;
5819;SDS011;2936;47.348;9.640;2023-08-12T01:54:22;4.57;;;4.17;;
5819;SDS011;2936;47.348;9.640;2023-08-12T01:56:49;4.67;;;4.37;;
5819;SDS011;2936;47.348;9.640;2023-08-12T01:59:18;4.73;;;4.33;;
5819;SDS011;2936;47.348;9.640;2023-08-12T02:01:45;4.70;;;4.30;;
5819;SDS011;2936;47.348;9.640;2023-08-12T02:04:12;4.10;;;3.87;;
5819;SDS011;2936;47.348;9.640;2023-08-12T02:06:40;5.00;;;4.60;;
5819;SDS011;2936;47.348;9.640;2023-08-12T02:09:07;4.70;;;4.30;;
5819;SDS011;2936;47.348;9.640;2023-08-12T02:11:34;5.10;;;4.70;;
5819;SDS011;2936;47.348;9.640;2023-08-12T02:14:01;4.10;;;3.87;;
5819;SDS011;2936;47.348;9.640;2023-08-12T02:16:30;4.63;;;4.07;;
5819;SDS011;2936;47.348;9.640;2023-08-12T02:18:57;5.50;;;5.00;;
5819;SDS011;2936;47.348;9.640;2023-08-12T02:21:25;4.43;;;4.03;;
5819;SDS011;2936;47.348;9.640;2023-08-12T02:23:52;4.60;;;4.30;;
5819;SDS011;2936;47.348;9.640;2023-08-12T02:26:19;4.80;;;4.43;;
5819;SDS011;2936;47.348;9.640;2023-08-12T02:28:47;5.03;;;4.70;;
5819;SDS011;2936;47.348;9.640;2023-08-12T02:31:34;5.00;;;4.57;;
5819;SDS011;2936;47.348;9.640;2023-08-12T02:34:02;5.20;;;4.63;;
5819;SDS011;2936;47.348;9.640;2023-08-12T02:36:29;4.83;;;4.43;;
5819;SDS011;2936;47.348;9.640;2023-08-12T02:38:56;4.47;;;4.10;;
5819;SDS011;2936;47.348;9.640;2023-08-12T02:41:24;11.47;;;4.47;;
5819;SDS011;2936;47.348;9.640;2023-08-12T02:43:51;4.20;;;3.93;;
5819;SDS011;2936;47.348;9.640;2023-08-12T02:46:18;4.77;;;4.37;;
5819;SDS011;2936;47.348;9.640;2023-08-12T02:48:47;5.67;;;4.67;;
5819;SDS011;2936;47.348;9.640;2023-08-12T02:51:17;4.90;;;4.60;;
5819;SDS011;2936;47.348;9.640;2023-08-12T02:53:57;5.00;;;4.60;;
5819;SDS011;2936;47.348;9.640;2023-08-12T02:56:44;6.37;;;4.60;;
5819;SDS011;2936;47.348;9.640;2023-08-12T02:59:12;4.80;;;4.50;;
5819;SDS011;2936;47.348;9.640;2023-08-12T03:01:47;6.17;;;4.20;;
5819;SDS011;2936;47.348;9.640;2023-08-12T03:04:27;4.17;;;3.87;;
5819;SDS011;2936;47.348;9.640;2023-08-12T03:06:54;5.43;;;4.93;;
5819;SDS011;2936;47.348;9.640;2023-08-12T03:09:21;4.77;;;4.47;;
5819;SDS011;2936;47.348;9.640;2023-08-12T03:11:48;4.50;;;4.20;;
5819;SDS011;2936;47.348;9.640;2023-08-12T03:14:21;4.43;;;4.13;;
5819;SDS011;2936;47.348;9.640;2023-08-12T03:16:56;5.10;;;4.70;;
5819;SDS011;2936;47.348;9.640;2023-08-12T03:25:30;4.40;;;4.10;;
5819;SDS011;2936;47.348;9.640;2023-08-12T03:28:04;4.23;;;4.03;;
5819;SDS011;2936;47.348;9.640;2023-08-12T03:30:34;3.97;;;3.67;;
5819;SDS011;2936;47.348;9.640;2023-08-12T03:33:15;4.40;;;4.10;;
5819;SDS011;2936;47.348;9.640;2023-08-12T03:38:45;5.47;;;4.70;;
5819;SDS011;2936;47.348;9.640;2023-08-12T03:41:16;4.57;;;4.37;;
5819;SDS011;2936;47.348;9.640;2023-08-12T03:43:45;6.20;;;5.60;;
5819;SDS011;2936;47.348;9.640;2023-08-12T03:46:19;4.63;;;4.30;;
5819;SDS011;2936;47.348;9.640;2023-08-12T03:48:46;4.97;;;4.67;;
5819;SDS011;2936;47.348;9.640;2023-08-12T03:51:13;5.20;;;4.83;;
5819;SDS011;2936;47.348;9.640;2023-08-12T03:53:41;4.73;;;4.40;;
5819;SDS011;2936;47.348;9.640;2023-08-12T03:56:22;6.07;;;5.60;;
5819;SDS011;2936;47.348;9.640;2023-08-12T04:01:39;6.57;;;6.10;;
5819;SDS011;2936;47.348;9.640;2023-08-12T04:04:06;7.80;;;5.50;;
5819;SDS011;2936;47.348;9.640;2023-08-12T04:06:34;5.90;;;5.40;;
5819;SDS011;2936;47.348;9.640;2023-08-12T04:09:03;6.60;;;5.60;;
5819;SDS011;2936;47.348;9.640;2023-08-12T04:14:34;5.63;;;5.17;;
5819;SDS011;2936;47.348;9.640;2023-08-12T04:17:03;4.77;;;4.47;;
5819;SDS011;2936;47.348;9.640;2023-08-12T04:19:30;5.30;;;4.90;;
5819;SDS011;2936;47.348;9.640;2023-08-12T04:21:58;4.70;;;4.30;;
5819;SDS011;2936;47.348;9.640;2023-08-12T04:24:25;6.33;;;5.13;;
5819;SDS011;2936;47.348;9.640;2023-08-12T04:26:52;5.90;;;4.70;;
5819;SDS011;2936;47.348;9.640;2023-08-12T04:29:19;4.40;;;4.10;;
5819;SDS011;2936;47.348;9.640;2023-08-12T04:31:46;5.40;;;4.80;;
5819;SDS011;2936;47.348;9.640;2023-08-12T04:34:15;4.93;;;4.40;;
5819;SDS011;2936;47.348;9.640;2023-08-12T04:36:42;4.87;;;4.43;;
5819;SDS011;2936;47.348;9.640;2023-08-12T04:39:09;5.20;;;4.67;;
5819;SDS011;2936;47.348;9.640;2023-08-12T04:41:37;5.63;;;5.13;;
5819;SDS011;2936;47.348;9.640;2023-08-12T04:44:04;6.07;;;5.47;;
5819;SDS011;2936;47.348;9.640;2023-08-12T04:46:32;5.10;;;4.80;;
5819;SDS011;2936;47.348;9.640;2023-08-12T04:48:59;6.43;;;5.93;;
5819;SDS011;2936;47.348;9.640;2023-08-12T04:51:27;5.90;;;5.40;;
5819;SDS011;2936;47.348;9.640;2023-08-12T04:53:55;5.03;;;4.60;;
5819;SDS011;2936;47.348;9.640;2023-08-12T04:56:23;7.77;;;5.43;;
5819;SDS011;2936;47.348;9.640;2023-08-12T04:58:54;6.43;;;5.10;;
5819;SDS011;2936;47.348;9.640;2023-08-12T05:01:21;5.30;;;4.90;;
5819;SDS011;2936;47.348;9.640;2023-08-12T05:03:48;7.97;;;4.67;;
5819;SDS011;2936;47.348;9.640;2023-08-12T05:06:15;5.70;;;4.83;;
5819;SDS011;2936;47.348;9.640;2023-08-12T05:08:44;5.03;;;4.63;;
5819;SDS011;2936;47.348;9.640;2023-08-12T05:11:11;4.67;;;4.27;;
5819;SDS011;2936;47.348;9.640;2023-08-12T05:13:39;13.80;;;5.60;;
5819;SDS011;2936;47.348;9.640;2023-08-12T05:16:06;7.90;;;6.40;;
5819;SDS011;2936;47.348;9.640;2023-08-12T05:18:33;4.30;;;4.00;;
5819;SDS011;2936;47.348;9.640;2023-08-12T05:21:00;6.87;;;5.73;;
5819;SDS011;2936;47.348;9.640;2023-08-12T05:23:28;5.83;;;5.27;;
5819;SDS011;2936;47.348;9.640;2023-08-12T05:25:56;6.33;;;5.83;;
5819;SDS011;2936;47.348;9.640;2023-08-12T05:28:23;10.13;;;5.37;;
5819;SDS011;2936;47.348;9.640;2023-08-12T05:30:51;5.20;;;4.90;;
5819;SDS011;2936;47.348;9.640;2023-08-12T05:33:20;5.80;;;5.30;;
5819;SDS011;2936;47.348;9.640;2023-08-12T05:35:47;6.93;;;6.07;;
5819;SDS011;2936;47.348;9.640;2023-08-12T05:38:14;8.40;;;6.00;;
5819;SDS011;2936;47.348;9.640;2023-08-12T05:40:41;6.03;;;5.53;;
5819;SDS011;2936;47.348;9.640;2023-08-12T05:43:10;6.83;;;5.93;;
5819;SDS011;2936;47.348;9.640;2023-08-12T05:45:37;6.10;;;5.53;;
5819;SDS011;2936;47.348;9.640;2023-08-12T05:48:05;5.40;;;5.00;;
5819;SDS011;2936;47.348;9.640;2023-08-12T05:50:32;5.00;;;4.70;;
5819;SDS011;2936;47.348;9.640;2023-08-12T05:52:59;8.93;;;5.30;;
5819;SDS011;2936;47.348;9.640;2023-08-12T05:55:26;5.80;;;5.30;;
5819;SDS011;2936;47.348;9.640;2023-08-12T05:57:54;5.33;;;4.97;;
5819;SDS011;2936;47.348;9.640;2023-08-12T06:00:22;5.50;;;5.00;;
5819;SDS011;2936;47.348;9.640;2023-08-12T06:02:50;6.17;;;5.20;;
5819;SDS011;2936;47.348;9.640;2023-08-12T06:05:17;17.50;;;5.60;;
5819;SDS011;2936;47.348;9.640;2023-08-12T06:07:44;7.20;;;5.70;;
5819;SDS011;2936;47.348;9.640;2023-08-12T06:10:12;5.30;;;4.80;;
5819;SDS011;2936;47.348;9.640;2023-08-12T06:12:39;5.37;;;4.97;;
5819;SDS011;2936;47.348;9.640;2023-08-12T06:15:06;6.40;;;5.33;;
5819;SDS011;2936;47.348;9.640;2023-08-12T06:17:35;6.07;;;5.47;;
5819;SDS011;2936;47.348;9.640;2023-08-12T06:20:03;8.07;;;5.10;;
5819;SDS011;2936;47.348;9.640;2023-08-12T06:22:30;6.50;;;6.00;;
5819;SDS011;2936;47.348;9.640;2023-08-12T06:24:57;10.20;;;4.50;;
5819;SDS011;2936;47.348;9.640;2023-08-12T06:27:25;4.73;;;4.33;;
5819;SDS011;2936;47.348;9.640;2023-08-12T06:29:53;4.73;;;4.33;;
5819;SDS011;2936;47.348;9.640;2023-08-12T06:32:20;5.27;;;4.27;;
5819;SDS011;2936;47.348;9.640;2023-08-12T06:34:49;5.43;;;3.80;;
5819;SDS011;2936;47.348;9.640;2023-08-12T06:37:16;3.17;;;3.00;;
5819;SDS011;2936;47.348;9.640;2023-08-12T06:39:43;2.90;;;2.70;;
5819;SDS011;2936;47.348;9.640;2023-08-12T06:42:10;10.33;;;2.90;;
5819;SDS011;2936;47.348;9.640;2023-08-12T06:44:38;7.07;;;3.47;;
5819;SDS011;2936;47.348;9.640;2023-08-12T06:47:05;4.80;;;3.37;;
5819;SDS011;2936;47.348;9.640;2023-08-12T06:49:32;3.23;;;3.03;;
5819;SDS011;2936;47.348;9.640;2023-08-12T06:52:01;3.60;;;3.40;;
5819;SDS011;2936;47.348;9.640;2023-08-12T06:54:29;3.67;;;3.47;;
5819;SDS011;2936;47.348;9.640;2023-08-12T06:56:56;3.30;;;3.10;;
5819;SDS011;2936;47.348;9.640;2023-08-12T06:59:24;3.30;;;3.10;;
5819;SDS011;2936;47.348;9.640;2023-08-12T07:01:51;4.47;;;3.33;;
5819;SDS011;2936;47.348;9.640;2023-08-12T07:04:19;3.13;;;2.93;;
5819;SDS011;2936;47.348;9.640;2023-08-12T07:06:47;3.33;;;3.13;;
5819;SDS011;2936;47.348;9.640;2023-08-12T07:09:16;3.63;;;3.43;;
5819;SDS011;2936;47.348;9.640;2023-08-12T07:11:44;3.00;;;2.73;;
5819;SDS011;2936;47.348;9.640;2023-08-12T07:14:14;3.50;;;3.30;;
5819;SDS011;2936;47.348;9.640;2023-08-12T07:16:42;5.13;;;2.90;;
5819;SDS011;2936;47.348;9.640;2023-08-12T07:19:11;4.17;;;3.87;;
5819;SDS011;2936;47.348;9.640;2023-08-12T07:21:39;3.90;;;3.60;;
5819;SDS011;2936;47.348;9.640;2023-08-12T07:24:08;3.50;;;3.30;;
5819;SDS011;2936;47.348;9.640;2023-08-12T07:26:39;4.90;;;3.30;;
5819;SDS011;2936;47.348;9.640;2023-08-12T07:29:06;6.00;;;3.40;;
5819;SDS011;2936;47.348;9.640;2023-08-12T07:31:34;2.70;;;2.50;;
5819;SDS011;2936;47.348;9.640;2023-08-12T07:34:01;3.17;;;3.00;;
5819;SDS011;2936;47.348;9.640;2023-08-12T07:36:28;3.80;;;3.50;;
5819;SDS011;2936;47.348;9.640;2023-08-12T07:38:56;3.30;;;3.10;;
5819;SDS011;2936;47.348;9.640;2023-08-12T07:41:23;3.40;;;3.20;;
5819;SDS011;2936;47.348;9.640;2023-08-12T07:43:55;3.77;;;3.50;;
5819;SDS011;2936;47.348;9.640;2023-08-12T07:46:22;2.87;;;2.67;;
5819;SDS011;2936;47.348;9.640;2023-08-12T07:48:50;4.93;;;3.00;;
5819;SDS011;2936;47.348;9.640;2023-08-12T07:51:17;3.80;;;3.60;;
5819;SDS011;2936;47.348;9.640;2023-08-12T07:53:45;3.73;;;3.43;;
5819;SDS011;2936;47.348;9.640;2023-08-12T07:56:12;3.20;;;3.10;;
5819;SDS011;2936;47.348;9.640;2023-08-12T07:58:40;5.80;;;3.70;;
5819;SDS011;2936;47.348;9.640;2023-08-12T08:01:09;5.23;;;3.40;;
5819;SDS011;2936;47.348;9.640;2023-08-12T08:03:38;6.90;;;3.87;;
5819;SDS011;2936;47.348;9.640;2023-08-12T08:06:10;6.90;;;3.33;;
5819;SDS011;2936;47.348;9.640;2023-08-12T08:08:43;3.87;;;3.67;;
5819;SDS011;2936;47.348;9.640;2023-08-12T08:11:10;4.07;;;3.77;;
5819;SDS011;2936;47.348;9.640;2023-08-12T08:13:41;5.23;;;3.30;;
5819;SDS011;2936;47.348;9.640;2023-08-12T08:16:11;3.70;;;3.50;;
5819;SDS011;2936;47.348;9.640;2023-08-12T08:18:41;3.87;;;3.57;;
5819;SDS011;2936;47.348;9.640;2023-08-12T08:21:08;7.10;;;3.30;;
5819;SDS011;2936;47.348;9.640;2023-08-12T08:23:39;7.40;;;3.67;;
5819;SDS011;2936;47.348;9.640;2023-08-12T08:26:07;4.17;;;3.77;;
5819;SDS011;2936;47.348;9.640;2023-08-12T08:28:34;4.40;;;4.10;;
5819;SDS011;2936;47.348;9.640;2023-08-12T08:31:03;4.60;;;3.57;;
5819;SDS011;2936;47.348;9.640;2023-08-12T08:33:35;3.80;;;3.60;;
5819;SDS011;2936;47.348;9.640;2023-08-12T08:36:05;3.90;;;3.60;;
5819;SDS011;2936;47.348;9.640;2023-08-12T08:38:33;12.27;;;3.70;;
5819;SDS011;2936;47.348;9.640;2023-08-12T08:41:00;10.03;;;3.70;;
5819;SDS011;2936;47.348;9.640;2023-08-12T08:43:31;4.20;;;3.40;;
5819;SDS011;2936;47.348;9.640;2023-08-12T08:45:59;3.40;;;3.20;;
5819;SDS011;2936;47.348;9.640;2023-08-12T08:48:28;3.30;;;3.20;;
5819;SDS011;2936;47.348;9.640;2023-08-12T08:50:57;3.80;;;3.50;;
5819;SDS011;2936;47.348;9.640;2023-08-12T08:53:28;4.57;;;4.17;;
5819;SDS011;2936;47.348;9.640;2023-08-12T08:55:58;4.80;;;4.43;;
5819;SDS011;2936;47.348;9.640;2023-08-12T08:58:25;4.07;;;3.70;;
5819;SDS011;2936;47.348;9.640;2023-08-12T09:00:52;3.83;;;3.53;;
5819;SDS011;2936;47.348;9.640;2023-08-12T09:03:23;4.03;;;3.80;;
5819;SDS011;2936;47.348;9.640;2023-08-12T09:05:55;3.90;;;3.70;;
5819;SDS011;2936;47.348;9.640;2023-08-12T09:08:24;3.20;;;3.00;;
5819;SDS011;2936;47.348;9.640;2023-08-12T09:10:52;4.13;;;3.83;;
5819;SDS011;2936;47.348;9.640;2023-08-12T09:13:20;3.73;;;3.53;;
5819;SDS011;2936;47.348;9.640;2023-08-12T09:15:48;3.20;;;3.00;;
5819;SDS011;2936;47.348;9.640;2023-08-12T09:18:18;4.13;;;3.50;;
5819;SDS011;2936;47.348;9.640;2023-08-12T09:20:49;3.57;;;2.93;;
5819;SDS011;2936;47.348;9.640;2023-08-12T09:23:16;3.40;;;3.20;;
5819;SDS011;2936;47.348;9.640;2023-08-12T09:25:55;4.17;;;3.87;;
5819;SDS011;2936;47.348;9.640;2023-08-12T09:28:29;3.70;;;3.50;;
5819;SDS011;2936;47.348;9.640;2023-08-12T09:30:56;3.90;;;3.57;;
5819;SDS011;2936;47.348;9.640;2023-08-12T09:33:24;3.63;;;3.40;;
5819;SDS011;2936;47.348;9.640;2023-08-12T09:35:51;3.70;;;3.47;;
5819;SDS011;2936;47.348;9.640;2023-08-12T09:38:19;5.50;;;3.70;;
5819;SDS011;2936;47.348;9.640;2023-08-12T09:40:51;3.53;;;3.33;;
5819;SDS011;2936;47.348;9.640;2023-08-12T09:43:23;3.30;;;3.10;;
5819;SDS011;2936;47.348;9.640;2023-08-12T09:45:50;3.97;;;3.67;;
5819;SDS011;2936;47.348;9.640;2023-08-12T09:48:18;3.73;;;3.37;;
5819;SDS011;2936;47.348;9.640;2023-08-12T09:50:45;4.20;;;3.23;;
5819;SDS011;2936;47.348;9.640;2023-08-12T09:53:12;3.80;;;3.50;;
5819;SDS011;2936;47.348;9.640;2023-08-12T09:55:39;3.27;;;2.97;;
5819;SDS011;2936;47.348;9.640;2023-08-12T09:58:09;4.40;;;4.10;;
5819;SDS011;2936;47.348;9.640;2023-08-12T10:00:37;3.33;;;3.13;;
5819;SDS011;2936;47.348;9.640;2023-08-12T10:03:06;3.53;;;3.23;;
5819;SDS011;2936;47.348;9.640;2023-08-12T10:05:34;6.93;;;3.67;;
5819;SDS011;2936;47.348;9.640;2023-08-12T10:08:03;4.33;;;3.90;;
5819;SDS011;2936;47.348;9.640;2023-08-12T10:10:32;4.13;;;3.73;;
5819;SDS011;2936;47.348;9.640;2023-08-12T10:13:00;4.80;;;4.20;;
5819;SDS011;2936;47.348;9.640;2023-08-12T10:15:31;3.63;;;3.43;;
5819;SDS011;2936;47.348;9.640;2023-08-12T10:17:58;4.10;;;3.80;;
5819;SDS011;2936;47.348;9.640;2023-08-12T10:20:25;5.57;;;4.60;;
5819;SDS011;2936;47.348;9.640;2023-08-12T10:23:02;5.23;;;4.50;;
5819;SDS011;2936;47.348;9.640;2023-08-12T10:25:47;3.93;;;3.70;;
5819;SDS011;2936;47.348;9.640;2023-08-12T10:28:14;5.47;;;3.60;;
5819;SDS011;2936;47.348;9.640;2023-08-12T10:30:49;4.17;;;3.87;;
5819;SDS011;2936;47.348;9.640;2023-08-12T10:33:17;4.90;;;4.40;;
5819;SDS011;2936;47.348;9.640;2023-08-12T10:35:51;5.30;;;4.60;;
5819;SDS011;2936;47.348;9.640;2023-08-12T10:38:27;3.73;;;3.53;;
5819;SDS011;2936;47.348;9.640;2023-08-12T10:41:04;4.17;;;3.83;;
5819;SDS011;2936;47.348;9.640;2023-08-12T10:43:53;5.70;;;4.30;;
5819;SDS011;2936;47.348;9.640;2023-08-12T10:46:38;5.93;;;4.50;;
5819;SDS011;2936;47.348;9.640;2023-08-12T10:49:11;4.90;;;4.60;;
5819;SDS011;2936;47.348;9.640;2023-08-12T10:51:44;7.90;;;3.87;;
5819;SDS011;2936;47.348;9.640;2023-08-12T10:57:06;4.73;;;4.33;;
5819;SDS011;2936;47.348;9.640;2023-08-12T10:59:52;5.30;;;4.80;;
5819;SDS011;2936;47.348;9.640;2023-08-12T11:02:22;4.83;;;4.43;;
5819;SDS011;2936;47.348;9.640;2023-08-12T11:04:52;6.00;;;4.47;;
5819;SDS011;2936;47.348;9.640;2023-08-12T11:07:21;4.60;;;4.30;;
5819;SDS011;2936;47.348;9.640;2023-08-12T11:09:51;4.53;;;4.17;;
5819;SDS011;2936;47.348;9.640;2023-08-12T11:12:27;4.70;;;4.30;;
5819;SDS011;2936;47.348;9.640;2023-08-12T11:14:56;4.53;;;4.23;;
5819;SDS011;2936;47.348;9.640;2023-08-12T11:17:28;4.17;;;3.97;;
5819;SDS011;2936;47.348;9.640;2023-08-12T11:19:56;6.23;;;4.90;;
5819;SDS011;2936;47.348;9.640;2023-08-12T11:22:24;4.13;;;3.87;;
5819;SDS011;2936;47.348;9.640;2023-08-12T11:24:51;4.60;;;4.30;;
5819;SDS011;2936;47.348;9.640;2023-08-12T11:27:19;6.77;;;5.10;;
5819;SDS011;2936;47.348;9.640;2023-08-12T11:29:48;4.13;;;3.83;;
5819;SDS011;2936;47.348;9.640;2023-08-12T11:32:16;4.63;;;4.27;;
5819;SDS011;2936;47.348;9.640;2023-08-12T11:34:46;14.27;;;4.40;;
5819;SDS011;2936;47.348;9.640;2023-08-12T11:37:14;6.30;;;4.60;;
5819;SDS011;2936;47.348;9.640;2023-08-12T11:39:41;4.57;;;4.13;;
5819;SDS011;2936;47.348;9.640;2023-08-12T11:42:09;4.70;;;4.30;;
5819;SDS011;2936;47.348;9.640;2023-08-12T11:44:36;6.23;;;4.53;;
5819;SDS011;2936;47.348;9.640;2023-08-12T11:47:04;5.47;;;4.97;;
5819;SDS011;2936;47.348;9.640;2023-08-12T11:49:31;5.03;;;4.53;;
5819;SDS011;2936;47.348;9.640;2023-08-12T11:52:00;5.00;;;4.60;;
5819;SDS011;2936;47.348;9.640;2023-08-12T11:54:27;5.00;;;4.63;;
5819;SDS011;2936;47.348;9.640;2023-08-12T11:56:55;5.57;;;5.07;;
5819;SDS011;2936;47.348;9.640;2023-08-12T11:59:25;5.73;;;4.80;;
5819;SDS011;2936;47.348;9.640;2023-08-12T12:01:54;4.57;;;4.27;;
5819;SDS011;2936;47.348;9.640;2023-08-12T12:04:22;10.43;;;4.07;;
5819;SDS011;2936;47.348;9.640;2023-08-12T12:06:52;5.17;;;4.77;;
5819;SDS011;2936;47.348;9.640;2023-08-12T12:09:21;7.70;;;4.70;;
5819;SDS011;2936;47.348;9.640;2023-08-12T12:11:51;5.47;;;4.97;;
5819;SDS011;2936;47.348;9.640;2023-08-12T12:14:20;4.63;;;4.23;;
5819;SDS011;2936;47.348;9.640;2023-08-12T12:16:57;4.87;;;4.43;;
5819;SDS011;2936;47.348;9.640;2023-08-12T12:22:27;4.87;;;4.43;;
5819;SDS011;2936;47.348;9.640;2023-08-12T12:24:59;4.30;;;3.90;;
5819;SDS011;2936;47.348;9.640;2023-08-12T12:27:31;4.47;;;4.03;;
5819;SDS011;2936;47.348;9.640;2023-08-12T12:29:59;4.90;;;4.27;;
5819;SDS011;2936;47.348;9.640;2023-08-12T12:32:31;5.07;;;4.10;;
5819;SDS011;2936;47.348;9.640;2023-08-12T12:34:59;4.03;;;3.73;;
5819;SDS011;2936;47.348;9.640;2023-08-12T12:37:28;4.73;;;4.40;;
5819;SDS011;2936;47.348;9.640;2023-08-12T12:39:59;3.63;;;3.43;;
5819;SDS011;2936;47.348;9.640;2023-08-12T12:42:28;3.33;;;3.13;;
5819;SDS011;2936;47.348;9.640;2023-08-12T12:44:58;3.80;;;3.50;;
5819;SDS011;2936;47.348;9.640;2023-08-12T12:47:25;5.13;;;3.53;;
5819;SDS011;2936;47.348;9.640;2023-08-12T12:49:54;3.57;;;3.27;;
5819;SDS011;2936;47.348;9.640;2023-08-12T12:52:23;5.73;;;3.43;;
5819;SDS011;2936;47.348;9.640;2023-08-12T12:54:53;3.13;;;2.93;;
5819;SDS011;2936;47.348;9.640;2023-08-12T12:57:22;3.70;;;3.50;;
5819;SDS011;2936;47.348;9.640;2023-08-12T13:00:14;6.60;;;3.57;;
5819;SDS011;2936;47.348;9.640;2023-08-12T13:03:03;5.03;;;3.00;;
5819;SDS011;2936;47.348;9.640;2023-08-12T13:05:36;3.73;;;3.43;;
5819;SDS011;2936;47.348;9.640;2023-08-12T13:11:11;4.07;;;3.10;;
5819;SDS011;2936;47.348;9.640;2023-08-12T13:13:47;3.53;;;3.23;;
5819;SDS011;2936;47.348;9.640;2023-08-12T13:16:28;3.37;;;2.90;;
5819;SDS011;2936;47.348;9.640;2023-08-12T13:18:59;3.33;;;3.03;;
5819;SDS011;2936;47.348;9.640;2023-08-12T13:21:26;6.40;;;3.20;;
5819;SDS011;2936;47.348;9.640;2023-08-12T13:23:56;7.63;;;3.10;;
5819;SDS011;2936;47.348;9.640;2023-08-12T13:26:24;3.27;;;3.00;;
5819;SDS011;2936;47.348;9.640;2023-08-12T13:28:56;3.57;;;3.27;;
5819;SDS011;2936;47.348;9.640;2023-08-12T13:31:24;4.30;;;3.20;;
5819;SDS011;2936;47.348;9.640;2023-08-12T13:33:51;3.30;;;3.10;;
5819;SDS011;2936;47.348;9.640;2023-08-12T13:36:18;4.73;;;2.93;;
5819;SDS011;2936;47.348;9.640;2023-08-12T13:38:46;3.20;;;3.00;;
5819;SDS011;2936;47.348;9.640;2023-08-12T13:41:13;4.20;;;3.60;;
5819;SDS011;2936;47.348;9.640;2023-08-12T13:43:42;4.67;;;3.60;;
5819;SDS011;2936;47.348;9.640;2023-08-12T13:46:13;3.03;;;2.83;;
5819;SDS011;2936;47.348;9.640;2023-08-12T13:48:44;5.70;;;3.17;;
5819;SDS011;2936;47.348;9.640;2023-08-12T13:51:11;3.13;;;2.90;;
5819;SDS011;2936;47.348;9.640;2023-08-12T13:53:38;2.90;;;2.70;;
5819;SDS011;2936;47.348;9.640;2023-08-12T13:56:06;3.77;;;3.17;;
5819;SDS011;2936;47.348;9.640;2023-08-12T13:58:33;3.50;;;3.20;;
5819;SDS011;2936;47.348;9.640;2023-08-12T14:01:00;4.60;;;3.93;;
5819;SDS011;2936;47.348;9.640;2023-08-12T14:03:32;3.97;;;3.53;;
5819;SDS011;2936;47.348;9.640;2023-08-12T14:06:00;2.93;;;2.73;;
5819;SDS011;2936;47.348;9.640;2023-08-12T14:08:28;2.90;;;2.70;;
5819;SDS011;2936;47.348;9.640;2023-08-12T14:10:55;4.70;;;3.27;;
5819;SDS011;2936;47.348;9.640;2023-08-12T14:13:23;3.13;;;2.83;;
5819;SDS011;2936;47.348;9.640;2023-08-12T14:15:52;3.27;;;2.97;;
5819;SDS011;2936;47.348;9.640;2023-08-12T14:18:21;5.53;;;3.10;;
5819;SDS011;2936;47.348;9.640;2023-08-12T14:20:50;2.60;;;2.50;;
5819;SDS011;2936;47.348;9.640;2023-08-12T14:23:17;2.70;;;2.60;;
5819;SDS011;2936;47.348;9.640;2023-08-12T14:25:46;3.00;;;2.80;;
5819;SDS011;2936;47.348;9.640;2023-08-12T14:28:15;5.13;;;3.53;;
5819;SDS011;2936;47.348;9.640;2023-08-12T14:30:43;3.03;;;2.83;;
5819;SDS011;2936;47.348;9.640;2023-08-12T14:33:10;3.53;;;3.07;;
5819;SDS011;2936;47.348;9.640;2023-08-12T14:35:38;4.70;;;3.10;;
5819;SDS011;2936;47.348;9.640;2023-08-12T14:38:07;2.80;;;2.60;;
5819;SDS011;2936;47.348;9.640;2023-08-12T14:40:37;3.70;;;3.23;;
5819;SDS011;2936;47.348;9.640;2023-08-12T14:45:44;3.57;;;3.07;;
5819;SDS011;2936;47.348;9.640;2023-08-12T14:48:11;3.30;;;3.00;;
5819;SDS011;2936;47.348;9.640;2023-08-12T14:50:40;2.90;;;2.67;;
5819;SDS011;2936;47.348;9.640;2023-08-12T14:53:10;3.03;;;2.77;;
5819;SDS011;2936;47.348;9.640;2023-08-12T14:55:51;3.20;;;2.90;;
5819;SDS011;2936;47.348;9.640;2023-08-12T14:58:23;2.70;;;2.50;;
5819;SDS011;2936;47.348;9.640;2023-08-12T15:00:50;5.80;;;3.70;;
5819;SDS011;2936;47.348;9.640;2023-08-12T15:03:20;4.07;;;3.00;;
5819;SDS011;2936;47.348;9.640;2023-08-12T15:05:58;3.50;;;3.30;;
5819;SDS011;2936;47.348;9.640;2023-08-12T15:08:30;2.90;;;2.80;;
5819;SDS011;2936;47.348;9.640;2023-08-12T15:11:00;3.37;;;3.20;;
5819;SDS011;2936;47.348;9.640;2023-08-12T15:13:27;2.87;;;2.70;;
5819;SDS011;2936;47.348;9.640;2023-08-12T15:15:54;3.00;;;2.80;;
5819;SDS011;2936;47.348;9.640;2023-08-12T15:18:25;3.00;;;2.80;;
5819;SDS011;2936;47.348;9.640;2023-08-12T15:20:52;4.57;;;4.27;;
5819;SDS011;2936;47.348;9.640;2023-08-12T15:23:20;3.30;;;3.10;;
5819;SDS011;2936;47.348;9.640;2023-08-12T15:25:48;2.80;;;2.70;;
5819;SDS011;2936;47.348;9.640;2023-08-12T15:28:16;5.90;;;3.27;;
5819;SDS011;2936;47.348;9.640;2023-08-12T15:30:47;2.53;;;2.33;;
5819;SDS011;2936;47.348;9.640;2023-08-12T15:33:15;2.53;;;2.30;;
5819;SDS011;2936;47.348;9.640;2023-08-12T15:35:42;3.20;;;3.00;;
5819;SDS011;2936;47.348;9.640;2023-08-12T15:38:10;2.60;;;2.50;;
5819;SDS011;2936;47.348;9.640;2023-08-12T15:40:37;3.33;;;3.10;;
5819;SDS011;2936;47.348;9.640;2023-08-12T15:43:06;3.17;;;2.97;;
5819;SDS011;2936;47.348;9.640;2023-08-12T15:45:34;3.67;;;3.17;;
5819;SDS011;2936;47.348;9.640;2023-08-12T15:48:04;3.83;;;3.13;;
5819;SDS011;2936;47.348;9.640;2023-08-12T15:50:33;2.70;;;2.50;;
5819;SDS011;2936;47.348;9.640;2023-08-12T15:53:01;4.40;;;2.33;;
5819;SDS011;2936;47.348;9.640;2023-08-12T15:55:28;3.97;;;2.63;;
5819;SDS011;2936;47.348;9.640;2023-08-12T15:57:56;2.80;;;2.70;;